createdAt,value
2023-01-01T00:01:59.656Z,65.81
2023-01-01T00:04:28.971Z,65.04
2023-01-01T00:06:58.449Z,63.86
2023-01-01T00:09:43.950Z,62.32
2023-01-01T00:12:12.351Z,61.60
2023-01-01T00:14:43.013Z,61.39
2023-01-01T00:17:11.365Z,61.77
2023-01-01T00:19:39.754Z,62.96
2023-01-01T00:22:35.274Z,61.98
2023-01-01T00:24:57.513Z,62.33
2023-01-01T00:27:25.746Z,62.41
2023-01-01T00:29:53.822Z,62.25
2023-01-01T00:32:23.012Z,60.80
2023-01-01T00:34:51.381Z,60.58
2023-01-01T00:37:20.864Z,60.45
2023-01-01T00:39:48.959Z,60.98
2023-01-01T00:42:17.061Z,61.87
2023-01-01T00:44:45.209Z,62.21
2023-01-01T00:47:13.368Z,62.36
2023-01-01T00:49:41.496Z,62.06
2023-01-01T00:52:09.622Z,60.82
2023-01-01T00:54:39.216Z,60.21
2023-01-01T00:57:07.448Z,60.07
2023-01-01T00:59:35.697Z,60.01
2023-01-01T01:02:04.011Z,60.37
2023-01-01T01:04:32.225Z,59.98
2023-01-01T01:07:00.313Z,59.20
2023-01-01T01:09:28.666Z,59.65
2023-01-01T01:12:17.672Z,59.30
2023-01-01T01:14:46.275Z,58.73
2023-01-01T01:17:14.329Z,59.43
2023-01-01T01:19:42.513Z,58.98
2023-01-01T01:22:10.683Z,58.83
2023-01-01T01:24:38.791Z,59.15
2023-01-01T01:27:08.366Z,58.64
2023-01-01T01:29:36.490Z,58.30
2023-01-01T01:32:04.977Z,58.27
2023-01-01T01:34:33.088Z,57.83
2023-01-01T01:37:01.201Z,57.95
2023-01-01T01:39:29.366Z,58.20
2023-01-01T01:41:57.615Z,57.97
2023-01-01T01:44:55.921Z,58.04
2023-01-01T01:47:33.845Z,57.96
2023-01-01T01:50:08.414Z,57.99
2023-01-01T01:52:39.198Z,58.15
2023-01-01T01:55:11.038Z,57.98
2023-01-01T01:57:40.406Z,58.06
2023-01-01T02:00:12.085Z,58.27
2023-01-01T02:02:44.802Z,58.61
2023-01-01T02:05:13.490Z,58.30
2023-01-01T02:07:42.488Z,57.85
2023-01-01T02:10:11.123Z,57.82
2023-01-01T02:12:39.428Z,57.87
2023-01-01T02:15:10.765Z,57.96
2023-01-01T02:17:45.864Z,57.92
2023-01-01T02:20:30.962Z,60.25
2023-01-01T02:23:33.979Z,59.08
2023-01-01T02:26:15.274Z,59.38
2023-01-01T02:28:55.289Z,60.90
2023-01-01T02:31:27.933Z,61.35
2023-01-01T02:34:02.304Z,60.90
2023-01-01T02:36:34.790Z,60.00
2023-01-01T02:39:06.313Z,60.15
2023-01-01T02:41:40.147Z,59.74
2023-01-01T02:44:09.736Z,58.58
2023-01-01T02:46:38.018Z,58.48
2023-01-01T02:49:10.182Z,57.96
2023-01-01T02:51:52.360Z,59.34
2023-01-01T02:54:32.467Z,59.24
2023-01-01T02:57:10.598Z,58.49
2023-01-01T03:00:16.793Z,60.13
2023-01-01T03:02:56.028Z,61.10
2023-01-01T03:05:32.584Z,62.49
2023-01-01T03:08:08.128Z,63.52
2023-01-01T03:10:44.273Z,64.62
2023-01-01T03:13:19.207Z,65.63
2023-01-01T03:15:59.932Z,65.24
2023-01-01T03:18:35.477Z,64.82
2023-01-01T03:21:06.391Z,64.13
2023-01-01T03:23:38.767Z,63.00
2023-01-01T03:26:11.026Z,61.89
2023-01-01T03:28:44.952Z,61.87
2023-01-01T03:31:19.403Z,62.32
2023-01-01T03:33:50.649Z,62.21
2023-01-01T03:36:22.777Z,63.03
2023-01-01T03:38:54.302Z,63.63
2023-01-01T03:41:28.897Z,64.16
2023-01-01T03:44:06.354Z,62.59
2023-01-01T03:46:38.052Z,61.64
2023-01-01T03:49:08.065Z,60.11
2023-01-01T03:51:58.123Z,58.36
2023-01-01T03:54:36.214Z,58.37
2023-01-01T03:57:11.153Z,57.53
2023-01-01T03:59:45.087Z,56.92
2023-01-01T04:02:20.359Z,57.31
2023-01-01T04:04:49.401Z,57.58
2023-01-01T04:07:17.988Z,57.20
2023-01-01T04:09:51.058Z,57.62
2023-01-01T04:12:20.237Z,58.38
2023-01-01T04:14:48.970Z,58.54
2023-01-01T04:17:18.571Z,58.67
2023-01-01T04:19:53.139Z,58.12
2023-01-01T04:22:23.553Z,58.25
2023-01-01T04:24:52.063Z,58.83
2023-01-01T04:27:21.090Z,59.22
2023-01-01T04:29:49.221Z,59.21
2023-01-01T04:32:18.773Z,60.56
2023-01-01T04:34:46.952Z,60.71
2023-01-01T04:37:15.199Z,60.65
2023-01-01T04:39:43.401Z,60.69
2023-01-01T04:42:11.481Z,60.73
2023-01-01T04:44:39.702Z,59.55
2023-01-01T04:47:07.990Z,60.12
2023-01-01T04:49:38.143Z,59.88
2023-01-01T04:52:07.226Z,59.70
2023-01-01T04:54:35.295Z,59.41
2023-01-01T04:57:03.440Z,59.24
2023-01-01T04:59:31.857Z,59.58
2023-01-01T05:02:00.280Z,59.50
2023-01-01T05:04:28.549Z,59.40
2023-01-01T05:06:58.040Z,60.86
2023-01-01T05:09:26.122Z,60.52
2023-01-01T05:11:55.554Z,60.52
2023-01-01T05:14:23.666Z,61.12
2023-01-01T05:16:51.931Z,60.82
2023-01-01T05:19:20.143Z,61.27
2023-01-01T05:21:48.221Z,61.60
2023-01-01T05:24:17.767Z,61.03
2023-01-01T05:26:46.413Z,61.23
2023-01-01T05:29:16.888Z,59.35
2023-01-01T05:31:46.143Z,59.88
2023-01-01T05:34:14.503Z,59.04
2023-01-01T05:36:42.610Z,58.06
2023-01-01T05:39:13.212Z,59.64
2023-01-01T05:41:43.449Z,58.37
2023-01-01T05:44:12.052Z,59.41
2023-01-01T05:46:40.285Z,59.21
2023-01-01T05:49:11.755Z,58.92
2023-01-01T05:54:07.353Z,57.22
2023-01-01T05:56:35.549Z,57.83
2023-01-01T05:59:05.175Z,56.66
2023-01-01T06:01:37.623Z,57.63
2023-01-01T06:04:11.652Z,59.98
2023-01-01T06:06:39.748Z,61.12
2023-01-01T06:09:07.932Z,62.25
2023-01-01T06:11:36.078Z,63.32
2023-01-01T06:14:05.593Z,64.47
2023-01-01T06:16:33.657Z,64.62
2023-01-01T06:19:01.787Z,64.90
2023-01-01T06:21:30.607Z,64.85
2023-01-01T06:23:59.973Z,64.96
2023-01-01T06:26:30.539Z,65.52
2023-01-01T06:28:59.413Z,65.88
2023-01-01T06:31:34.051Z,65.67
2023-01-01T06:34:05.329Z,65.85
2023-01-01T06:36:33.674Z,67.24
2023-01-01T06:39:03.623Z,67.36
2023-01-01T06:41:31.929Z,66.72
2023-01-01T06:44:02.084Z,67.42
2023-01-01T06:46:33.323Z,67.82
2023-01-01T06:49:04.776Z,66.91
2023-01-01T06:51:34.697Z,67.08
2023-01-01T06:54:04.751Z,66.88
2023-01-01T06:56:33.290Z,66.75
2023-01-01T06:59:02.170Z,66.90
2023-01-01T07:01:35.878Z,68.03
2023-01-01T07:04:07.877Z,67.72
2023-01-01T07:06:36.681Z,68.40
2023-01-01T07:09:05.373Z,68.95
2023-01-01T07:11:34.167Z,68.86
2023-01-01T07:14:03.272Z,67.96
2023-01-01T07:16:32.817Z,67.11
2023-01-01T07:19:01.400Z,66.58
2023-01-01T07:21:31.743Z,66.93
2023-01-01T07:24:01.193Z,67.01
2023-01-01T07:26:30.714Z,67.51
2023-01-01T07:29:06.284Z,68.97
2023-01-01T07:31:38.580Z,69.29
2023-01-01T07:34:06.954Z,69.72
2023-01-01T07:36:35.355Z,68.76
2023-01-01T07:39:03.516Z,67.03
2023-01-01T07:41:31.776Z,65.66
2023-01-01T07:44:00.546Z,64.41
2023-01-01T07:46:29.531Z,63.64
2023-01-01T07:49:00.879Z,64.14
2023-01-01T07:51:29.070Z,63.50
2023-01-01T07:54:02.263Z,65.04
2023-01-01T07:56:35.081Z,66.52
2023-01-01T07:59:03.232Z,66.74
2023-01-01T08:01:31.644Z,66.90
2023-01-01T08:04:01.152Z,65.69
2023-01-01T08:06:29.258Z,65.40
2023-01-01T08:08:57.356Z,66.36
2023-01-01T08:11:25.556Z,65.40
2023-01-01T08:13:53.620Z,63.96
2023-01-01T08:16:21.850Z,62.60
2023-01-01T08:18:50.026Z,62.09
2023-01-01T08:21:19.616Z,62.08
2023-01-01T08:23:47.699Z,63.63
2023-01-01T08:26:17.917Z,65.62
2023-01-01T08:28:47.854Z,65.62
2023-01-01T08:31:19.090Z,65.31
2023-01-01T08:33:47.213Z,65.52
2023-01-01T08:36:16.532Z,65.66
2023-01-01T08:38:45.982Z,64.99
2023-01-01T08:41:14.255Z,65.94
2023-01-01T08:43:42.378Z,65.98
2023-01-01T08:46:10.602Z,66.81
2023-01-01T08:48:38.715Z,66.45
2023-01-01T08:51:07.318Z,67.01
2023-01-01T08:53:35.467Z,66.51
2023-01-01T08:56:08.041Z,67.06
2023-01-01T08:58:37.666Z,67.56
2023-01-01T09:01:06.978Z,67.53
2023-01-01T09:03:35.695Z,67.55
2023-01-01T09:06:03.905Z,67.65
2023-01-01T09:08:32.457Z,68.20
2023-01-01T09:11:02.905Z,67.39
2023-01-01T09:13:34.322Z,67.55
2023-01-01T09:16:02.503Z,67.89
2023-01-01T09:18:32.691Z,68.14
2023-01-01T09:21:00.752Z,68.00
2023-01-01T09:23:28.846Z,67.92
2023-01-01T09:25:58.301Z,66.93
2023-01-01T09:28:28.829Z,66.32
2023-01-01T09:30:58.397Z,65.68
2023-01-01T09:33:31.096Z,64.96
2023-01-01T09:36:13.302Z,64.31
2023-01-01T09:38:41.513Z,63.03
2023-01-01T09:41:21.778Z,62.44
2023-01-01T09:44:00.618Z,61.97
2023-01-01T09:46:32.056Z,60.79
2023-01-01T09:49:04.433Z,60.39
2023-01-01T09:51:48.762Z,60.57
2023-01-01T09:54:28.071Z,60.74
2023-01-01T09:56:59.250Z,59.93
2023-01-01T09:59:27.833Z,59.98
2023-01-01T10:02:01.037Z,59.86
2023-01-01T10:04:42.824Z,60.16
2023-01-01T10:07:17.361Z,60.29
2023-01-01T10:09:56.365Z,60.20
2023-01-01T10:12:36.110Z,59.57
2023-01-01T10:15:14.023Z,59.40
2023-01-01T10:17:47.734Z,59.00
2023-01-01T10:20:21.268Z,58.85
2023-01-01T10:22:53.820Z,58.43
2023-01-01T10:25:26.049Z,58.17
2023-01-01T10:27:59.816Z,57.96
2023-01-01T10:30:30.171Z,57.80
2023-01-01T10:33:00.643Z,57.84
2023-01-01T10:35:35.943Z,58.26
2023-01-01T10:38:05.644Z,57.91
2023-01-01T10:40:34.855Z,58.16
2023-01-01T10:43:04.401Z,58.84
2023-01-01T10:45:35.538Z,59.19
2023-01-01T10:48:17.228Z,58.95
2023-01-01T10:50:51.290Z,58.11
2023-01-01T10:53:28.778Z,57.52
2023-01-01T10:56:13.062Z,57.32
2023-01-01T10:58:46.510Z,56.62
2023-01-01T11:01:21.989Z,57.74
2023-01-01T11:04:00.653Z,59.48
2023-01-01T11:06:32.953Z,59.13
2023-01-01T11:09:07.080Z,58.45
2023-01-01T11:11:44.211Z,57.66
2023-01-01T11:14:21.869Z,58.90
2023-01-01T11:16:50.643Z,60.61
2023-01-01T11:19:25.136Z,57.96
2023-01-01T11:21:53.287Z,56.50
2023-01-01T11:24:23.087Z,56.44
2023-01-01T11:26:54.848Z,55.67
2023-01-01T11:29:28.629Z,55.13
2023-01-01T11:31:58.197Z,56.00
2023-01-01T11:34:34.169Z,56.20
2023-01-01T11:37:20.576Z,55.84
2023-01-01T11:39:51.495Z,55.22
2023-01-01T11:42:22.792Z,56.10
2023-01-01T11:44:54.394Z,57.34
2023-01-01T11:47:30.338Z,56.36
2023-01-01T11:50:05.922Z,56.32
2023-01-01T11:52:40.064Z,54.74
2023-01-01T11:55:19.914Z,53.74
2023-01-01T11:58:04.603Z,53.46
2023-01-01T12:00:37.195Z,53.24
2023-01-01T12:03:16.741Z,52.57
2023-01-01T12:05:51.759Z,52.26
2023-01-01T12:08:29.812Z,51.91
2023-01-01T12:11:04.542Z,52.64
2023-01-01T12:13:39.616Z,51.68
2023-01-01T12:16:13.434Z,51.74
2023-01-01T12:18:47.998Z,52.92
2023-01-01T12:21:24.407Z,52.49
2023-01-01T12:23:52.884Z,52.09
2023-01-01T12:26:25.653Z,52.67
2023-01-01T12:29:28.934Z,52.40
2023-01-01T12:32:05.693Z,53.06
2023-01-01T12:34:40.101Z,52.63
2023-01-01T12:37:34.523Z,54.59
2023-01-01T12:40:38.771Z,53.71
2023-01-01T12:43:11.208Z,54.29
2023-01-01T12:46:05.537Z,53.55
2023-01-01T12:48:55.281Z,53.17
2023-01-01T12:51:37.246Z,54.00
2023-01-01T12:54:36.304Z,52.54
2023-01-01T12:57:10.784Z,51.17
2023-01-01T12:59:44.865Z,50.73
2023-01-01T13:02:17.752Z,50.25
2023-01-01T13:04:48.736Z,50.65
2023-01-01T13:07:25.077Z,50.03
2023-01-01T13:09:54.960Z,50.01
2023-01-01T13:12:25.577Z,49.92
2023-01-01T13:14:53.736Z,50.26
2023-01-01T13:17:23.986Z,49.46
2023-01-01T13:19:59.121Z,49.39
2023-01-01T13:22:44.371Z,50.38
2023-01-01T13:25:25.151Z,49.70
2023-01-01T13:28:12.148Z,49.53
2023-01-01T13:30:53.052Z,49.68
2023-01-01T13:33:27.287Z,49.62
2023-01-01T13:36:38.167Z,49.82
2023-01-01T13:39:08.431Z,50.66
2023-01-01T13:41:44.542Z,51.87
2023-01-01T13:44:18.680Z,50.69
2023-01-01T13:47:09.911Z,51.03
2023-01-01T13:49:54.606Z,51.25
2023-01-01T13:52:53.835Z,51.11
2023-01-01T13:55:52.699Z,51.32
2023-01-01T13:58:48.506Z,50.97
2023-01-01T14:01:36.809Z,51.20
2023-01-01T14:04:13.414Z,52.04
2023-01-01T14:06:46.389Z,52.42
2023-01-01T14:09:15.798Z,53.46
2023-01-01T14:11:44.185Z,54.23
2023-01-01T14:14:28.401Z,55.21
2023-01-01T14:17:00.200Z,55.46
2023-01-01T14:19:29.247Z,55.18
2023-01-01T14:21:57.876Z,56.23
2023-01-01T14:24:27.578Z,57.34
2023-01-01T14:26:56.573Z,57.09
2023-01-01T14:29:29.195Z,57.03
2023-01-01T14:32:01.141Z,58.54
2023-01-01T14:34:32.523Z,57.62
2023-01-01T14:37:02.523Z,57.84
2023-01-01T14:39:32.133Z,57.20
2023-01-01T14:42:03.855Z,55.85
2023-01-01T14:44:37.266Z,56.41
2023-01-01T14:47:06.477Z,57.26
2023-01-01T14:49:38.397Z,57.05
2023-01-01T14:52:10.468Z,57.57
2023-01-01T14:54:42.381Z,58.05
2023-01-01T14:57:15.112Z,58.56
2023-01-01T14:59:49.469Z,58.78
2023-01-01T15:02:22.290Z,58.03
2023-01-01T15:04:51.027Z,59.25
2023-01-01T15:07:23.293Z,59.57
2023-01-01T15:09:52.075Z,60.42
2023-01-01T15:12:21.129Z,59.54
2023-01-01T15:14:52.786Z,59.53
2023-01-01T15:17:22.712Z,59.43
2023-01-01T15:20:03.392Z,59.41
2023-01-01T15:22:33.917Z,60.10
2023-01-01T15:25:03.363Z,60.51
2023-01-01T15:27:34.132Z,60.40
2023-01-01T15:30:11.650Z,61.38
2023-01-01T15:32:42.288Z,61.22
2023-01-01T15:35:27.752Z,61.36
2023-01-01T15:38:03.466Z,61.64
2023-01-01T15:40:36.111Z,60.86
2023-01-01T15:43:15.625Z,60.95
2023-01-01T15:45:54.001Z,61.49
2023-01-01T15:48:27.932Z,61.92
2023-01-01T15:51:06.365Z,62.80
2023-01-01T15:53:47.158Z,63.44
2023-01-01T15:56:16.389Z,63.15
2023-01-01T15:58:51.625Z,63.60
2023-01-01T16:01:24.062Z,65.09
2023-01-01T16:03:58.949Z,65.00
2023-01-01T16:06:27.264Z,65.63
2023-01-01T16:08:55.392Z,65.20
2023-01-01T16:11:23.655Z,64.42
2023-01-01T16:13:51.704Z,64.18
2023-01-01T16:16:26.760Z,64.88
2023-01-01T16:18:56.505Z,65.66
2023-01-01T16:21:27.834Z,64.82
2023-01-01T16:23:56.533Z,65.37
2023-01-01T16:26:24.579Z,64.74
2023-01-01T16:28:53.148Z,65.35
2023-01-01T16:31:28.024Z,65.91
2023-01-01T16:33:58.658Z,66.35
2023-01-01T16:36:29.278Z,66.60
2023-01-01T16:39:05.269Z,66.56
2023-01-01T16:41:33.480Z,67.29
2023-01-01T16:44:01.600Z,68.77
2023-01-01T16:46:33.659Z,69.09
2023-01-01T16:49:02.042Z,69.53
2023-01-01T16:51:33.849Z,69.51
2023-01-01T16:54:02.034Z,69.06
2023-01-01T16:56:30.485Z,67.00
2023-01-01T16:59:03.292Z,66.40
2023-01-01T17:01:33.483Z,66.04
2023-01-01T17:04:01.750Z,64.83
2023-01-01T17:06:29.902Z,64.93
2023-01-01T17:08:57.996Z,65.62
2023-01-01T17:11:26.108Z,65.45
2023-01-01T17:13:54.212Z,64.22
2023-01-01T17:16:27.290Z,63.87
2023-01-01T17:19:17.258Z,63.75
2023-01-01T17:21:47.724Z,64.32
2023-01-01T17:24:16.624Z,63.00
2023-01-01T17:26:44.911Z,62.69
2023-01-01T17:29:12.963Z,63.39
2023-01-01T17:31:41.069Z,64.94
2023-01-01T17:34:14.299Z,65.38
2023-01-01T17:36:43.713Z,64.40
2023-01-01T17:39:12.506Z,65.36
2023-01-01T17:41:41.104Z,65.59
2023-01-01T17:44:09.536Z,65.79
2023-01-01T17:46:37.862Z,66.72
2023-01-01T17:49:06.569Z,66.93
2023-01-01T17:51:36.008Z,66.58
2023-01-01T17:54:06.520Z,67.08
2023-01-01T17:56:34.622Z,67.91
2023-01-01T17:59:04.411Z,68.18
2023-01-01T18:01:35.498Z,67.74
2023-01-01T18:04:06.306Z,68.23
2023-01-01T18:06:41.511Z,68.83
2023-01-01T18:09:12.762Z,69.12
2023-01-01T18:11:41.863Z,69.45
2023-01-01T18:14:10.366Z,69.90
2023-01-01T18:16:40.497Z,70.67
2023-01-01T18:19:08.834Z,70.46
2023-01-01T18:21:38.334Z,71.25
2023-01-01T18:24:12.055Z,71.94
2023-01-01T18:26:40.172Z,71.93
2023-01-01T18:29:08.367Z,72.06
2023-01-01T18:31:37.069Z,71.21
2023-01-01T18:34:07.063Z,71.12
2023-01-01T18:36:36.233Z,71.75
2023-01-01T18:39:14.575Z,71.88
2023-01-01T18:42:19.257Z,71.27
2023-01-01T18:44:47.821Z,70.64
2023-01-01T18:47:17.746Z,69.69
2023-01-01T18:49:49.887Z,68.63
2023-01-01T18:52:25.746Z,69.96
2023-01-01T18:55:04.126Z,71.18
2023-01-01T18:57:32.935Z,71.81
2023-01-01T19:00:02.059Z,71.80
2023-01-01T19:02:38.120Z,72.99
2023-01-01T19:05:19.013Z,73.52
2023-01-01T19:07:53.006Z,73.30
2023-01-01T19:10:22.527Z,73.66
2023-01-01T19:12:54.985Z,73.80
2023-01-01T19:15:23.773Z,73.24
2023-01-01T19:17:54.843Z,70.81
2023-01-01T19:20:24.814Z,68.83
2023-01-01T19:22:53.025Z,68.05
2023-01-01T19:25:36.124Z,68.53
2023-01-01T19:28:35.709Z,68.27
2023-01-01T19:31:05.485Z,67.10
2023-01-01T19:33:33.675Z,67.50
2023-01-01T19:36:01.900Z,67.81
2023-01-01T19:38:29.960Z,67.82
2023-01-01T19:40:59.483Z,67.09
2023-01-01T19:43:27.664Z,68.84
2023-01-01T19:45:55.859Z,70.74
2023-01-01T19:48:23.958Z,71.47
2023-01-01T19:50:52.396Z,70.43
2023-01-01T19:53:20.427Z,71.79
2023-01-01T19:55:48.604Z,72.46
2023-01-01T19:58:19.894Z,73.00
2023-01-01T20:00:48.171Z,73.09
2023-01-01T20:03:52.305Z,72.35
2023-01-01T20:06:05.016Z,71.74
2023-01-01T20:08:33.139Z,71.45
2023-01-01T20:11:01.581Z,72.40
2023-01-01T20:13:31.121Z,72.39
2023-01-01T20:15:59.491Z,72.71
2023-01-01T20:18:27.611Z,73.01
2023-01-01T20:21:12.989Z,73.98
2023-01-01T20:23:41.919Z,73.43
2023-01-01T20:26:10.301Z,74.50
2023-01-01T20:28:57.407Z,74.22
2023-01-01T20:31:25.557Z,75.46
2023-01-01T20:33:53.647Z,74.38
2023-01-01T20:36:39.213Z,72.64
2023-01-01T20:39:07.334Z,71.62
2023-01-01T20:41:35.588Z,70.26
2023-01-01T20:44:05.073Z,70.47
2023-01-01T20:46:36.243Z,72.73
2023-01-01T20:49:04.466Z,73.41
2023-01-01T20:51:32.623Z,73.42
2023-01-01T20:54:00.800Z,73.77
2023-01-01T20:56:29.029Z,74.43
2023-01-01T20:59:01.820Z,75.22
2023-01-01T21:01:37.385Z,74.36
2023-01-01T21:04:05.962Z,73.69
2023-01-01T21:06:34.269Z,73.29
2023-01-01T21:09:05.076Z,71.31
2023-01-01T21:11:33.294Z,71.65
2023-01-01T21:14:01.553Z,73.75
2023-01-01T21:16:33.734Z,72.47
2023-01-01T21:19:04.770Z,74.20
2023-01-01T21:21:42.265Z,75.38
2023-01-01T21:24:21.554Z,77.00
2023-01-01T21:26:51.818Z,77.16
2023-01-01T21:29:22.492Z,76.96
2023-01-01T21:31:54.117Z,75.57
2023-01-01T21:34:35.721Z,75.65
2023-01-01T21:37:14.753Z,75.08
2023-01-01T21:39:42.994Z,76.01
2023-01-01T21:42:24.549Z,75.83
2023-01-01T21:44:57.759Z,76.34
2023-01-01T21:47:26.975Z,76.85
2023-01-01T21:49:57.514Z,77.84
2023-01-01T21:52:26.303Z,80.03
2023-01-01T21:54:55.772Z,79.35
2023-01-01T21:57:25.905Z,80.00
2023-01-01T21:59:54.923Z,79.34
2023-01-01T22:02:38.485Z,79.50
2023-01-01T22:05:30.830Z,79.37
2023-01-01T22:08:00.158Z,78.66
2023-01-01T22:10:35.389Z,79.80
2023-01-01T22:13:03.786Z,78.82
2023-01-01T22:15:39.325Z,79.28
2023-01-01T22:18:27.102Z,77.74
2023-01-01T22:20:58.016Z,78.76
2023-01-01T22:23:41.699Z,79.86
2023-01-01T22:26:18.711Z,79.05
2023-01-01T22:28:50.214Z,79.42
2023-01-01T22:31:21.539Z,78.60
2023-01-01T22:33:51.045Z,78.22
2023-01-01T22:36:25.524Z,79.64
2023-01-01T22:38:55.660Z,78.85
2023-01-01T22:41:23.795Z,76.94
2023-01-01T22:43:58.038Z,76.59
2023-01-01T22:46:30.284Z,75.94
2023-01-01T22:49:01.142Z,75.04
2023-01-01T22:51:38.538Z,76.57
2023-01-01T22:54:06.807Z,77.10
2023-01-01T22:56:35.012Z,77.49
2023-01-01T22:59:05.106Z,78.77
2023-01-01T23:01:33.239Z,79.31
2023-01-01T23:04:01.408Z,78.83
2023-01-01T23:06:31.065Z,76.95
2023-01-01T23:08:59.407Z,76.71
2023-01-01T23:11:28.635Z,76.72
2023-01-01T23:14:22.671Z,77.44
2023-01-01T23:16:50.877Z,77.56
2023-01-01T23:19:20.098Z,77.73
2023-01-01T23:21:49.606Z,78.42
2023-01-01T23:24:21.196Z,78.65
2023-01-01T23:26:50.646Z,78.75
2023-01-01T23:29:20.275Z,78.79
2023-01-01T23:31:49.725Z,79.44
2023-01-01T23:34:18.336Z,79.04
2023-01-01T23:36:46.689Z,78.73
2023-01-01T23:39:16.128Z,77.79
2023-01-01T23:41:44.203Z,78.18
2023-01-01T23:44:12.358Z,79.38
2023-01-01T23:46:40.929Z,79.54
2023-01-01T23:49:09.447Z,80.60
2023-01-01T23:51:39.341Z,81.27
2023-01-01T23:54:07.476Z,81.85
2023-01-01T23:56:37.142Z,82.52
2023-01-01T23:59:05.368Z,81.87
